createdAt,value
2023-03-17T00:03:00.151Z,99896.78
2023-03-17T00:08:19.266Z,99910.41
2023-03-17T00:13:20.808Z,99915.22
2023-03-17T00:18:23.486Z,99909.91
2023-03-17T00:23:25.425Z,99901.84
2023-03-17T00:28:27.786Z,99905.94
2023-03-17T00:33:33.186Z,99894.84
2023-03-17T00:38:34.984Z,99890.84
2023-03-17T00:43:37.276Z,99888.78
2023-03-17T00:48:38.760Z,99884.09
2023-03-17T00:53:40.411Z,99887.94
2023-03-17T00:58:42.804Z,99883.72
2023-03-17T01:03:44.622Z,99895.50
2023-03-17T01:08:46.572Z,99880.81
2023-03-17T01:13:48.489Z,99871.75
2023-03-17T01:18:49.876Z,99865.97
2023-03-17T01:23:53.471Z,99858.84
2023-03-17T01:28:54.906Z,99834.63
2023-03-17T01:33:56.270Z,99845.59
2023-03-17T01:38:58.566Z,99850.06
2023-03-17T01:44:00.041Z,99833.09
2023-03-17T01:49:14.458Z,99830.69
2023-03-17T01:54:38.275Z,99830.78
2023-03-17T01:59:46.446Z,99820.66
2023-03-17T02:04:51.997Z,99822.56
2023-03-17T02:09:56.044Z,99814.03
2023-03-17T02:14:58.442Z,99801.44
2023-03-17T02:20:18.452Z,99818.69
2023-03-17T02:25:21.398Z,99801.34
2023-03-17T02:30:24.054Z,99801.34
2023-03-17T02:35:25.488Z,99815.31
2023-03-17T02:40:27.338Z,99820.84
2023-03-17T02:50:44.372Z,99801.09
2023-03-17T02:55:45.724Z,99783.38
2023-03-17T03:00:47.693Z,99772.28
2023-03-17T03:05:49.162Z,99779.28
2023-03-17T03:10:50.471Z,99786.50
2023-03-17T03:15:51.903Z,99788.75
2023-03-17T03:20:53.394Z,99787.03
2023-03-17T03:25:54.905Z,99790.63
2023-03-17T03:30:56.430Z,99787.47
2023-03-17T03:35:58.035Z,99777.09
2023-03-17T03:40:59.510Z,99779.88
2023-03-17T03:46:00.937Z,99786.03
2023-03-17T03:51:02.998Z,99784.78
2023-03-17T03:56:04.684Z,99783.09
2023-03-17T04:01:07.396Z,99772.00
2023-03-17T04:06:08.790Z,99759.59
2023-03-17T04:11:10.344Z,99752.03
2023-03-17T04:16:12.203Z,99779.75
2023-03-17T04:21:13.856Z,99781.56
2023-03-17T04:26:17.246Z,99766.75
2023-03-17T04:31:18.617Z,99762.50
2023-03-17T04:36:22.078Z,99749.75
2023-03-17T04:41:23.495Z,99767.53
2023-03-17T04:46:24.887Z,99771.56
2023-03-17T04:51:27.079Z,99768.94
2023-03-17T04:56:31.210Z,99752.78
2023-03-17T05:01:33.220Z,99766.13
2023-03-17T05:06:34.729Z,99795.22
2023-03-17T05:11:36.284Z,99788.72
2023-03-17T05:16:37.642Z,99775.84
2023-03-17T05:21:39.059Z,99785.69
2023-03-17T05:26:40.668Z,99779.03
2023-03-17T05:31:42.344Z,99795.94
2023-03-17T05:36:44.523Z,99791.63
2023-03-17T05:41:45.860Z,99802.31
2023-03-17T05:46:47.540Z,99812.03
2023-03-17T05:51:48.889Z,99819.97
2023-03-17T05:56:50.725Z,99813.97
2023-03-17T06:01:52.176Z,99802.66
2023-03-17T06:06:53.680Z,99803.38
2023-03-17T06:11:55.675Z,99797.88
2023-03-17T06:16:57.054Z,99788.56
2023-03-17T06:21:58.434Z,99787.88
2023-03-17T06:26:59.828Z,99795.69
2023-03-17T06:32:17.058Z,99789.28
2023-03-17T06:37:21.399Z,99793.44
2023-03-17T06:42:22.814Z,99782.03
2023-03-17T06:47:26.013Z,99789.34
2023-03-17T06:52:27.630Z,99803.25
2023-03-17T06:57:29.050Z,99798.78
2023-03-17T07:02:31.047Z,99803.78
2023-03-17T07:07:32.790Z,99802.63
2023-03-17T07:12:34.282Z,99813.72
2023-03-17T07:17:35.645Z,99784.47
2023-03-17T07:22:37.001Z,99800.88
2023-03-17T07:27:38.787Z,99801.97
2023-03-17T07:32:40.354Z,99781.72
2023-03-17T07:37:42.749Z,99789.16
2023-03-17T07:42:45.368Z,99791.28
2023-03-17T07:47:46.716Z,99778.88
2023-03-17T07:52:49.234Z,99771.66
2023-03-17T07:57:50.771Z,99767.28
2023-03-17T08:03:06.939Z,99781.88
2023-03-17T08:08:12.578Z,99778.03
2023-03-17T08:13:14.304Z,99783.19
2023-03-17T08:18:16.262Z,99764.50
2023-03-17T08:23:19.046Z,99752.84
2023-03-17T08:28:20.482Z,99745.56
2023-03-17T08:33:24.501Z,99749.28
2023-03-17T08:38:26.046Z,99740.47
2023-03-17T08:43:28.669Z,99743.38
2023-03-17T08:48:30.832Z,99757.94
2023-03-17T08:53:34.828Z,99750.66
2023-03-17T08:58:39.811Z,99754.78
2023-03-17T09:03:42.666Z,99748.47
2023-03-17T09:08:47.217Z,99748.41
2023-03-17T09:13:49.274Z,99741.09
2023-03-17T09:18:52.199Z,99745.69
2023-03-17T09:23:53.644Z,99743.13
2023-03-17T09:28:55.432Z,99731.00
2023-03-17T09:33:56.850Z,99712.09
2023-03-17T09:38:58.672Z,99713.66
2023-03-17T09:44:25.098Z,99716.06
2023-03-17T09:49:42.390Z,99703.91
2023-03-17T09:54:46.628Z,99706.97
2023-03-17T09:59:53.514Z,99700.00
2023-03-17T10:04:55.137Z,99691.81
2023-03-17T10:10:03.098Z,99694.84
2023-03-17T10:15:13.452Z,99695.06
2023-03-17T10:20:26.049Z,99692.91
2023-03-17T10:25:33.828Z,99694.53
2023-03-17T10:30:35.489Z,99687.00
2023-03-17T10:35:39.394Z,99689.69
2023-03-17T10:40:41.633Z,99677.09
2023-03-17T10:46:08.189Z,99673.38
2023-03-17T10:51:10.521Z,99664.59
2023-03-17T10:56:23.046Z,99680.16
2023-03-17T11:01:29.584Z,99667.91
2023-03-17T11:06:37.109Z,99671.66
2023-03-17T11:11:50.501Z,99665.97
2023-03-17T11:16:54.581Z,99662.97
2023-03-17T11:22:09.998Z,99662.28
2023-03-17T11:27:15.656Z,99655.81
2023-03-17T11:32:42.003Z,99648.41
2023-03-17T11:37:55.940Z,99642.69
2023-03-17T11:43:35.242Z,99645.16
2023-03-17T11:48:40.562Z,99623.78
2023-03-17T11:53:57.272Z,99632.03
2023-03-17T11:59:28.643Z,99620.03
2023-03-17T12:04:53.294Z,99608.06
2023-03-17T12:10:04.687Z,99596.44
2023-03-17T12:15:16.840Z,99598.88
2023-03-17T12:20:26.129Z,99588.97
2023-03-17T12:25:44.971Z,99583.31
2023-03-17T12:30:55.956Z,99567.31
2023-03-17T12:35:59.472Z,99580.75
2023-03-17T12:41:38.724Z,99578.81
2023-03-17T12:47:00.546Z,99569.28
2023-03-17T12:52:10.178Z,99554.03
2023-03-17T12:57:22.007Z,99562.13
2023-03-17T13:02:29.448Z,99551.53
2023-03-17T13:07:36.768Z,99552.84
2023-03-17T13:12:44.433Z,99545.59
2023-03-17T13:17:46.073Z,99548.38
2023-03-17T13:23:14.240Z,99542.66
2023-03-17T13:28:23.707Z,99535.47
2023-03-17T13:33:31.821Z,99526.22
2023-03-17T13:39:17.902Z,99524.81
2023-03-17T13:44:26.566Z,99528.91
2023-03-17T13:49:30.302Z,99519.59
2023-03-17T13:54:35.109Z,99514.56
2023-03-17T13:59:56.892Z,99502.69
2023-03-17T14:05:02.746Z,99509.19
2023-03-17T14:10:06.173Z,99511.03
2023-03-17T14:15:24.272Z,99496.47
2023-03-17T14:20:27.547Z,99496.03
2023-03-17T14:25:35.537Z,99492.41
2023-03-17T14:30:37.092Z,99494.66
2023-03-17T14:35:42.196Z,99493.66
2023-03-17T14:40:43.701Z,99480.97
2023-03-17T14:46:08.141Z,99480.91
2023-03-17T14:51:23.500Z,99472.22
2023-03-17T14:56:31.870Z,99465.66
2023-03-17T15:01:41.591Z,99457.41
2023-03-17T15:06:51.972Z,99449.84
2023-03-17T15:12:02.772Z,99451.38
2023-03-17T15:17:06.499Z,99448.38
2023-03-17T15:22:35.980Z,99441.63
2023-03-17T15:27:37.394Z,99440.44
2023-03-17T15:32:39.133Z,99438.41
2023-03-17T15:37:42.916Z,99425.97
2023-03-17T15:42:45.560Z,99421.34
2023-03-17T15:47:47.340Z,99425.13
2023-03-17T15:52:48.805Z,99438.56
2023-03-17T15:57:55.110Z,99431.78
2023-03-17T16:02:59.909Z,99439.19
2023-03-17T16:08:01.607Z,99442.06
2023-03-17T16:13:02.955Z,99439.09
2023-03-17T16:18:08.233Z,99455.56
2023-03-17T16:23:18.480Z,99456.19
2023-03-17T16:28:26.871Z,99466.72
2023-03-17T16:33:35.930Z,99474.13
2023-03-17T16:38:37.276Z,99470.19
2023-03-17T16:43:43.859Z,99470.19
2023-03-17T16:48:45.292Z,99467.69
2023-03-17T16:53:46.799Z,99470.53
2023-03-17T16:58:49.427Z,99469.59
2023-03-17T17:03:51.124Z,99477.13
2023-03-17T17:08:52.660Z,99471.47
2023-03-17T17:13:54.116Z,99478.88
2023-03-17T17:18:56.359Z,99467.03
2023-03-17T17:23:58.608Z,99487.81
2023-03-17T17:29:00.022Z,99481.47
2023-03-17T17:34:01.522Z,99471.13
2023-03-17T17:39:03.415Z,99477.84
2023-03-17T17:44:05.716Z,99476.03
2023-03-17T17:49:07.154Z,99467.84
2023-03-17T17:54:08.752Z,99470.22
2023-03-17T17:59:10.619Z,99468.53
2023-03-17T18:04:12.749Z,99482.63
2023-03-17T18:09:14.566Z,99488.63
2023-03-17T18:14:16.033Z,99499.41
2023-03-17T18:19:17.721Z,99500.56
2023-03-17T18:24:19.402Z,99511.31
2023-03-17T18:29:21.109Z,99508.97
2023-03-17T18:34:26.992Z,99512.19
2023-03-17T18:39:28.556Z,99498.59
2023-03-17T18:44:30.010Z,99498.63
2023-03-17T18:49:31.443Z,99505.50
2023-03-17T18:54:33.002Z,99495.78
2023-03-17T18:59:34.630Z,99505.78
2023-03-17T19:04:36.270Z,99492.75
2023-03-17T19:09:37.933Z,99506.47
2023-03-17T19:14:40.292Z,99513.50
2023-03-17T19:19:41.749Z,99504.59
2023-03-17T19:24:43.332Z,99502.44
2023-03-17T19:29:44.854Z,99505.59
2023-03-17T19:34:47.676Z,99495.72
2023-03-17T19:39:49.323Z,99506.28
2023-03-17T19:44:51.445Z,99515.44
2023-03-17T19:49:53.682Z,99523.16
2023-03-17T19:54:56.294Z,99533.53
2023-03-17T19:59:58.011Z,99525.66
2023-03-17T20:04:59.671Z,99528.19
2023-03-17T20:10:01.388Z,99545.56
2023-03-17T20:15:03.854Z,99546.41
2023-03-17T20:20:07.257Z,99545.72
2023-03-17T20:25:10.283Z,99557.94
2023-03-17T20:30:12.283Z,99557.94
2023-03-17T20:35:13.811Z,99554.06
2023-03-17T20:40:15.140Z,99562.91
2023-03-17T20:45:16.590Z,99550.03
2023-03-17T20:50:17.953Z,99558.22
2023-03-17T20:55:20.137Z,99556.19
2023-03-17T21:00:21.960Z,99534.75
2023-03-17T21:05:26.495Z,99540.97
2023-03-17T21:10:28.676Z,99545.13
2023-03-17T21:15:30.597Z,99549.44
2023-03-17T21:20:32.235Z,99548.09
2023-03-17T21:25:36.148Z,99536.03
2023-03-17T21:30:37.793Z,99533.00
2023-03-17T21:35:39.308Z,99526.09
2023-03-17T21:40:41.160Z,99527.78
2023-03-17T21:45:42.589Z,99538.09
2023-03-17T21:50:44.264Z,99558.50
2023-03-17T21:55:45.875Z,99542.44
2023-03-17T22:00:47.786Z,99548.19
2023-03-17T22:05:50.722Z,99548.63
2023-03-17T22:10:52.338Z,99561.16
2023-03-17T22:15:53.927Z,99559.63
2023-03-17T22:20:56.229Z,99554.06
2023-03-17T22:25:57.643Z,99559.03
2023-03-17T22:30:59.053Z,99557.53
2023-03-17T22:36:00.593Z,99563.50
2023-03-17T22:41:04.844Z,99575.84
2023-03-17T22:46:06.246Z,99581.75
2023-03-17T22:51:10.633Z,99583.22
2023-03-17T22:56:12.559Z,99575.53
2023-03-17T23:01:16.385Z,99575.03
2023-03-17T23:06:18.182Z,99579.88
2023-03-17T23:11:23.070Z,99584.50
2023-03-17T23:16:24.718Z,99598.56
2023-03-17T23:21:29.545Z,99609.09
2023-03-17T23:26:32.003Z,99619.25
2023-03-17T23:31:34.076Z,99623.59
2023-03-17T23:36:39.856Z,99622.94
2023-03-17T23:41:41.736Z,99628.03
2023-03-17T23:46:44.913Z,99620.81
2023-03-17T23:51:46.979Z,99636.06
2023-03-17T23:56:48.614Z,99639.88
